Time;durP1;ratioP1;P1;durP2;ratioP2;P2;SDS_P1;SDS_P2;PMS_P1;PMS_P2;Temp;Humidity;BMP_temperature;BMP_pressure;BME280_temperature;BME280_humidity;BME280_pressure;Samples;Min_cycle;Max_cycle;Signal;HPM_P1;HPM_P2
2022/04/02 00:01:46;;;;;;;4.80;4.67;;;;;;;0.89;95.38;100763.34;5117034;28;20543;-70
2022/04/02 00:04:13;;;;;;;4.80;4.60;;;;;;;0.81;95.89;100769.34;5116568;28;20222;-70
2022/04/02 00:06:39;;;;;;;5.33;5.03;;;;;;;0.88;95.05;100765.06;5116390;28;20190;-70
2022/04/02 00:09:06;;;;;;;5.50;5.37;;;;;;;0.93;94.61;100765.03;5116326;28;20185;-70
2022/04/02 00:11:32;;;;;;;5.00;4.80;;;;;;;1.05;94.01;100765.88;5116540;28;20207;-70
2022/04/02 00:13:59;;;;;;;4.33;4.23;;;;;;;0.96;94.53;100759.91;5116158;28;20209;-71
2022/04/02 00:16:26;;;;;;;4.60;4.30;;;;;;;1.00;94.03;100765.06;5116092;28;20203;-71
2022/04/02 00:18:52;;;;;;;7.27;4.43;;;;;;;1.03;94.28;100759.03;5116381;28;20265;-71
2022/04/02 00:21:19;;;;;;;4.50;4.20;;;;;;;0.85;94.70;100772.78;5116051;28;20549;-71
2022/04/02 00:23:46;;;;;;;4.50;4.40;;;;;;;1.01;93.28;100765.91;5116104;28;20663;-71
2022/04/02 00:26:14;;;;;;;4.53;4.40;;;;;;;0.82;93.87;100771.06;5115972;28;20188;-71
2022/04/02 00:28:42;;;;;;;4.07;4.07;;;;;;;0.97;93.59;100772.78;5115940;28;20240;-70
2022/04/02 00:31:11;;;;;;;4.20;4.10;;;;;;;0.99;92.57;100775.34;5115837;28;20191;-70
2022/04/02 00:33:41;;;;;;;3.93;3.83;;;;;;;0.90;93.29;100783.94;5131653;27;20222;-70
2022/04/02 00:36:08;;;;;;;4.33;4.23;;;;;;;0.96;93.22;100772.78;5097398;28;20210;-70
2022/04/02 00:38:36;;;;;;;5.23;5.03;;;;;;;0.98;92.97;100771.06;5115988;28;20184;-70
2022/04/02 00:41:02;;;;;;;4.40;4.40;;;;;;;1.05;92.70;100770.19;5115694;28;20184;-70
2022/04/02 00:43:34;;;;;;;4.83;4.73;;;;;;;0.99;92.94;100778.78;5115594;28;20663;-70
2022/04/02 00:46:05;;;;;;;4.17;3.97;;;;;;;0.93;92.68;100773.66;5097387;28;20183;-70
2022/04/02 00:48:32;;;;;;;3.37;3.33;;;;;;;0.88;93.04;100777.09;5130594;27;20259;-70
2022/04/02 00:51:00;;;;;;;4.00;3.70;;;;;;;0.98;91.24;100782.22;5097304;28;20249;-70
2022/04/02 00:53:34;;;;;;;3.40;3.40;;;;;;;1.03;91.55;100785.66;5097195;28;20196;-70
2022/04/02 00:56:00;;;;;;;3.47;3.37;;;;;;;1.11;91.09;100793.38;5115380;28;20255;-70
2022/04/02 00:58:28;;;;;;;4.53;4.23;;;;;;;0.96;91.69;100786.53;5115320;28;20542;-70
2022/04/02 01:00:56;;;;;;;3.83;3.67;;;;;;;0.96;91.62;100788.25;5097296;28;20194;-70
2022/04/02 01:03:27;;;;;;;4.30;4.20;;;;;;;0.92;91.95;100787.38;5096920;28;20570;-70
2022/04/02 01:05:56;;;;;;;3.97;3.87;;;;;;;0.96;92.13;100790.81;5097264;28;20531;-70
2022/04/02 01:08:26;;;;;;;4.20;3.90;;;;;;;1.03;90.99;100792.53;5115182;28;20204;-70
2022/04/02 01:10:56;;;;;;;4.20;4.00;;;;;;;1.08;90.42;100793.41;5097117;28;20227;-70
2022/04/02 01:13:23;;;;;;;4.47;4.17;;;;;;;1.11;90.13;100790.81;5115264;28;20186;-70
2022/04/02 01:15:49;;;;;;;3.90;3.80;;;;;;;0.98;90.57;100789.94;5096674;28;20299;-70
2022/04/02 01:18:17;;;;;;;3.83;3.73;;;;;;;0.94;91.03;100789.97;5096670;28;20247;-70
2022/04/02 01:20:45;;;;;;;3.53;3.53;;;;;;;0.97;90.70;100792.53;5096661;28;20586;-70
2022/04/02 01:23:11;;;;;;;3.90;3.90;;;;;;;0.95;90.93;100792.53;5114853;28;20716;-70
2022/04/02 01:25:42;;;;;;;3.80;3.70;;;;;;;0.90;90.69;100793.41;5131500;27;20258;-70
2022/04/02 01:28:17;;;;;;;3.50;3.50;;;;;;;1.00;90.56;100796.00;5130941;27;20672;-70
2022/04/02 01:30:46;;;;;;;4.30;4.10;;;;;;;1.08;90.33;100793.41;5096441;28;20282;-70
2022/04/02 01:33:12;;;;;;;4.10;4.10;;;;;;;1.00;90.04;100795.09;5114704;28;20262;-71
2022/04/02 01:35:39;;;;;;;3.93;3.83;;;;;;;0.96;89.96;100798.56;5114479;28;20223;-71
2022/04/02 01:38:17;;;;;;;4.73;4.53;;;;;;;1.03;88.71;100795.13;5096390;28;20209;-71
2022/04/02 01:40:45;;;;;;;3.60;3.60;;;;;;;1.01;88.83;100796.84;5096530;28;20675;-70
2022/04/02 01:43:13;;;;;;;5.20;3.97;;;;;;;1.00;88.90;100788.25;5096275;28;20565;-70
2022/04/02 01:45:47;;;;;;;6.37;3.70;;;;;;;0.98;88.88;100796.81;5096237;28;20181;-70
2022/04/02 01:48:21;;;;;;;4.00;3.90;;;;;;;0.96;87.98;100801.13;5096479;28;20199;-70
2022/04/02 01:50:52;;;;;;;4.07;4.07;;;;;;;0.92;88.37;100796.81;5096938;28;20280;-70
2022/04/02 01:53:21;;;;;;;4.37;4.07;;;;;;;1.06;87.78;100798.53;5096324;28;20244;-70
2022/04/02 01:55:47;;;;;;;5.00;4.90;;;;;;;0.96;88.25;100801.13;5095898;28;20216;-70
2022/04/02 01:58:30;;;;;;;4.10;3.87;;;;;;;1.06;87.77;100802.84;5096002;28;20275;-70
2022/04/02 02:00:58;;;;;;;3.77;3.67;;;;;;;1.09;87.94;100802.84;5096519;28;20196;-70
2022/04/02 02:03:25;;;;;;;3.97;3.77;;;;;;;1.00;87.16;100810.56;5096111;28;20214;-70
2022/04/02 02:05:53;;;;;;;3.90;3.80;;;;;;;1.03;87.42;100808.84;5096195;28;20615;-70
2022/04/02 02:08:20;;;;;;;3.83;3.73;;;;;;;1.07;87.71;100807.13;5096408;28;20197;-70
2022/04/02 02:10:52;;;;;;;3.73;3.63;;;;;;;1.03;87.43;100803.72;5130225;27;20200;-70
2022/04/02 02:13:37;;;;;;;3.67;3.47;;;;;;;1.02;86.29;100809.72;5114747;28;20204;-70
2022/04/02 02:16:08;;;;;;;3.67;3.50;;;;;;;1.02;86.86;100801.13;5096258;28;20207;-70
2022/04/02 02:18:35;;;;;;;3.70;3.70;;;;;;;1.05;86.99;100814.88;5095604;28;20196;-70
2022/04/02 02:21:02;;;;;;;5.93;4.00;;;;;;;0.96;86.95;100802.00;5113888;28;20221;-70
2022/04/02 02:23:29;;;;;;;4.10;4.00;;;;;;;1.05;87.06;100811.44;5095639;28;20538;-70
2022/04/02 02:25:55;;;;;;;3.70;3.70;;;;;;;1.03;86.96;100811.44;5114125;28;20276;-70
2022/04/02 02:28:23;;;;;;;4.03;3.87;;;;;;;0.97;86.61;100811.44;5095622;28;20191;-70
2022/04/02 02:30:53;;;;;;;4.43;4.33;;;;;;;1.03;86.09;100815.75;5096313;28;20252;-70
2022/04/02 02:36:06;;;;;;;3.43;3.43;;;;;;;1.01;85.47;100817.47;5096091;28;20207;-70
2022/04/02 02:38:52;;;;;;;3.30;3.00;;;;;;;0.92;86.21;100817.44;5114302;28;20527;-70
2022/04/02 02:41:29;;;;;;;3.90;3.80;;;;;;;0.92;86.13;100814.88;5095763;28;20191;-70
2022/04/02 02:44:03;;;;;;;3.70;3.47;;;;;;;0.97;85.87;100818.31;5095399;28;20216;-71
2022/04/02 02:46:36;;;;;;;3.40;3.40;;;;;;;0.92;86.11;100820.03;5095599;28;20183;-71
2022/04/02 02:49:09;;;;;;;4.53;4.43;;;;;;;0.91;86.43;100823.47;5095966;28;20528;-70
2022/04/02 02:51:38;;;;;;;3.03;3.03;;;;;;;0.93;85.13;100826.91;5129432;28;20219;-70
2022/04/02 02:54:09;;;;;;;4.00;3.97;;;;;;;0.94;85.24;100824.34;5095486;28;20211;-70
2022/04/02 02:56:36;;;;;;;3.17;3.13;;;;;;;1.02;85.29;100826.91;5095200;28;20664;-70
2022/04/02 02:59:04;;;;;;;3.63;3.53;;;;;;;0.97;85.31;100831.22;5095323;28;20192;-70
2022/04/02 03:01:32;;;;;;;3.40;3.20;;;;;;;1.00;84.56;100836.34;5095205;28;20188;-70
2022/04/02 03:03:59;;;;;;;3.80;3.73;;;;;;;1.00;84.07;100831.19;5095200;28;20616;-70
2022/04/02 03:06:29;;;;;;;3.63;3.63;;;;;;;0.95;84.34;100831.22;5095500;28;20276;-70
2022/04/02 03:08:56;;;;;;;3.27;3.27;;;;;;;1.04;84.10;100828.63;5095169;28;20217;-70
2022/04/02 03:11:23;;;;;;;4.73;4.03;;;;;;;0.96;83.62;100829.50;5114760;28;20180;-70
2022/04/02 03:13:51;;;;;;;3.73;3.43;;;;;;;1.03;83.66;100833.78;5099379;28;20239;-70
2022/04/02 03:16:18;;;;;;;3.47;3.37;;;;;;;1.05;82.43;100829.47;5098987;28;20219;-70
2022/04/02 03:18:56;;;;;;;3.10;3.10;;;;;;;0.95;82.70;100833.78;5099101;28;20190;-70
2022/04/02 03:21:24;;;;;;;3.37;3.30;;;;;;;1.00;82.55;100846.66;5099050;28;20195;-70
2022/04/02 03:23:52;;;;;;;3.40;3.40;;;;;;;0.98;82.96;100843.22;5098881;28;20206;-70
2022/04/02 03:26:21;;;;;;;3.53;3.53;;;;;;;0.92;83.68;100838.06;5098878;28;20207;-70
2022/04/02 03:28:49;;;;;;;3.60;3.60;;;;;;;0.86;84.18;100856.09;5132995;27;20560;-70
2022/04/02 03:31:19;;;;;;;3.53;3.33;;;;;;;0.96;84.02;100850.13;5098717;28;20192;-70
2022/04/02 03:33:48;;;;;;;3.67;3.57;;;;;;;1.00;82.88;100852.69;5098668;28;20209;-70
2022/04/02 03:36:15;;;;;;;3.47;3.17;;;;;;;0.92;82.99;100853.53;5133035;27;20684;-70
2022/04/02 03:38:42;;;;;;;3.50;3.40;;;;;;;0.80;83.49;100852.69;5117205;28;20229;-70
2022/04/02 03:41:13;;;;;;;4.03;4.03;;;;;;;0.90;83.97;100847.53;5098690;28;20224;-70
2022/04/02 03:43:41;;;;;;;3.57;3.57;;;;;;;0.78;83.13;100854.38;5098458;28;20250;-70
2022/04/02 03:48:56;;;;;;;3.97;3.87;;;;;;;0.85;82.79;100852.66;5133460;27;20195;-70
2022/04/02 03:51:23;;;;;;;3.93;3.93;;;;;;;0.96;82.00;100860.41;5098981;28;20547;-70
2022/04/02 03:53:51;;;;;;;6.43;3.10;;;;;;;0.95;81.77;100862.16;5098280;28;20664;-70
2022/04/02 03:56:19;;;;;;;3.57;3.57;;;;;;;1.04;81.13;100864.72;5098032;28;20226;-70
2022/04/02 03:58:54;;;;;;;3.37;3.37;;;;;;;0.99;82.00;100870.72;5098290;28;20192;-70
2022/04/02 04:01:22;;;;;;;4.10;3.90;;;;;;;1.02;81.76;100870.75;5098271;28;20246;-70
2022/04/02 04:03:49;;;;;;;4.00;3.80;;;;;;;0.99;82.19;100863.84;5098106;28;20211;-70
2022/04/02 04:06:16;;;;;;;3.87;3.87;;;;;;;1.00;81.86;100872.44;5098085;28;20189;-70
2022/04/02 04:08:44;;;;;;;3.27;3.27;;;;;;;1.02;81.74;100869.03;5098044;28;20203;-70
2022/04/02 04:11:14;;;;;;;3.33;3.33;;;;;;;1.00;82.29;100868.16;5098026;28;20193;-70
2022/04/02 04:13:42;;;;;;;3.60;3.37;;;;;;;0.87;82.13;100875.88;5098015;28;20214;-69
2022/04/02 04:16:08;;;;;;;3.63;3.60;;;;;;;0.89;82.82;100884.47;5098053;28;20214;-69
2022/04/02 04:18:37;;;;;;;3.37;3.30;;;;;;;0.82;83.02;100887.03;5097898;28;20193;-69
2022/04/02 04:21:04;;;;;;;4.07;3.73;;;;;;;0.84;82.76;100884.47;5097812;28;20200;-70
2022/04/02 04:23:31;;;;;;;3.43;3.43;;;;;;;0.93;82.66;100886.19;5096464;28;20212;-70
2022/04/02 04:26:01;;;;;;;3.20;3.20;;;;;;;0.98;81.81;100889.63;5097714;28;20623;-70
2022/04/02 04:28:33;;;;;;;3.37;3.37;;;;;;;0.98;82.61;100895.63;5098015;28;20598;-70
2022/04/02 04:30:59;;;;;;;4.37;4.17;;;;;;;0.96;82.69;100896.50;5097817;28;20282;-70
2022/04/02 04:33:26;;;;;;;3.60;3.50;;;;;;;0.86;82.65;100894.75;5116308;28;20192;-69
2022/04/02 04:35:52;;;;;;;3.30;3.23;;;;;;;0.82;83.67;100894.78;5097550;28;20198;-69
2022/04/02 04:38:19;;;;;;;3.13;3.13;;;;;;;0.94;83.12;100893.09;5097717;28;20188;-69
2022/04/02 04:40:46;;;;;;;3.40;3.40;;;;;;;0.93;82.71;100904.22;5097713;28;20662;-69
2022/04/02 04:43:14;;;;;;;3.27;3.20;;;;;;;0.89;82.71;100905.94;5115947;28;20196;-69
2022/04/02 04:45:45;;;;;;;3.50;3.50;;;;;;;0.86;83.18;100908.53;5097622;28;20210;-69
2022/04/02 04:48:12;;;;;;;4.47;4.27;;;;;;;0.93;82.86;100906.81;5097271;28;20194;-69
2022/04/02 04:50:50;;;;;;;4.43;4.33;;;;;;;0.85;81.57;100911.09;5097260;28;20190;-69
2022/04/02 04:53:18;;;;;;;3.43;3.33;;;;;;;0.89;82.53;100910.25;5131360;27;20247;-69
2022/04/02 04:55:45;;;;;;;3.73;3.73;;;;;;;0.89;82.28;100916.25;5097005;28;20223;-69
2022/04/02 04:58:16;;;;;;;3.80;3.80;;;;;;;0.98;81.24;100920.56;5097070;28;20728;-69
2022/04/02 05:00:44;;;;;;;4.07;3.87;;;;;;;0.98;81.59;100925.72;5115621;28;20265;-69
2022/04/02 05:03:12;;;;;;;4.00;3.90;;;;;;;1.01;82.01;100926.59;5097049;28;20286;-69
2022/04/02 05:05:46;;;;;;;3.90;3.90;;;;;;;0.92;82.17;100925.72;5096907;28;20271;-69
2022/04/02 05:08:18;;;;;;;5.13;3.37;;;;;;;0.93;82.30;100930.00;5131693;27;20180;-69
2022/04/02 05:10:45;;;;;;;4.33;4.23;;;;;;;0.86;81.86;100925.69;5097394;28;20190;-69
2022/04/02 05:13:18;;;;;;;3.57;3.57;;;;;;;0.93;82.18;100933.47;5096862;28;20188;-69
2022/04/02 05:15:48;;;;;;;3.70;3.70;;;;;;;0.88;81.97;100929.16;5097391;28;20198;-69
2022/04/02 05:18:19;;;;;;;3.70;3.70;;;;;;;0.90;82.67;100935.16;5130797;27;20211;-69
2022/04/02 05:20:46;;;;;;;3.73;3.73;;;;;;;0.99;81.83;100942.91;5097137;28;20204;-69
2022/04/02 05:23:12;;;;;;;3.43;3.43;;;;;;;0.87;82.28;100932.59;5096636;28;20189;-69
2022/04/02 05:25:39;;;;;;;4.17;3.93;;;;;;;1.09;81.91;100944.66;5096863;28;20203;-69
2022/04/02 05:28:07;;;;;;;3.33;3.33;;;;;;;1.00;81.15;100942.94;5130712;27;20192;-69
2022/04/02 05:30:36;;;;;;;3.47;3.37;;;;;;;1.04;81.71;100946.34;5096641;28;20207;-69
2022/04/02 05:33:04;;;;;;;4.17;4.00;;;;;;;1.06;80.64;100949.78;5114750;28;20200;-69
2022/04/02 05:35:50;;;;;;;3.63;3.63;;;;;;;0.98;81.05;100947.19;5114510;28;20183;-69
2022/04/02 05:38:17;;;;;;;3.50;3.50;;;;;;;0.85;80.48;100949.75;5114757;28;20289;-69
2022/04/02 05:40:43;;;;;;;4.97;3.97;;;;;;;1.04;81.29;100951.50;5096299;28;20199;-69
2022/04/02 05:43:09;;;;;;;4.20;4.10;;;;;;;0.86;80.91;100959.19;5096298;28;20580;-69
2022/04/02 05:45:37;;;;;;;3.37;3.37;;;;;;;0.99;81.21;100963.53;5096135;28;20584;-69
2022/04/02 05:48:03;;;;;;;3.63;3.53;;;;;;;0.96;81.78;100953.22;5114985;28;20204;-69
2022/04/02 05:50:31;;;;;;;5.00;4.53;;;;;;;0.87;81.08;100968.69;5114378;28;20242;-69
2022/04/02 05:53:03;;;;;;;3.33;3.23;;;;;;;0.95;80.76;100962.69;5114629;28;20618;-69
2022/04/02 05:55:31;;;;;;;3.97;3.97;;;;;;;0.90;81.17;100976.41;5114182;28;20224;-69
2022/04/02 05:57:57;;;;;;;3.97;3.83;;;;;;;1.01;81.43;100979.88;5114046;28;20675;-70
2022/04/02 06:00:24;;;;;;;4.70;4.30;;;;;;;0.98;81.74;100979.84;5114492;28;20187;-69
2022/04/02 06:02:57;;;;;;;4.23;3.93;;;;;;;1.12;80.75;100985.03;5114692;28;20229;-69
2022/04/02 06:05:24;;;;;;;3.80;3.60;;;;;;;1.12;80.60;100980.75;5114126;28;20273;-69
2022/04/02 06:07:50;;;;;;;3.80;3.70;;;;;;;1.14;80.77;100986.75;5114097;28;20190;-69
2022/04/02 06:10:17;;;;;;;3.70;3.70;;;;;;;1.06;81.13;100988.47;5114052;28;20217;-69
2022/04/02 06:12:43;;;;;;;3.93;3.83;;;;;;;1.10;81.37;100996.22;5114324;28;20196;-69
2022/04/02 06:15:10;;;;;;;3.60;3.60;;;;;;;1.09;81.40;100993.63;5113878;28;20266;-69
2022/04/02 06:17:37;;;;;;;3.33;3.33;;;;;;;1.06;81.36;100998.78;5113887;28;20209;-69
2022/04/02 06:20:05;;;;;;;4.00;3.70;;;;;;;1.19;81.04;101003.09;5113904;28;20195;-70
2022/04/02 06:22:32;;;;;;;4.17;3.97;;;;;;;1.22;80.82;101004.84;5114166;28;20192;-70
2022/04/02 06:24:58;;;;;;;3.57;3.47;;;;;;;1.21;79.87;101008.25;5113761;28;20216;-70
2022/04/02 06:27:25;;;;;;;5.20;4.50;;;;;;;1.25;80.74;101010.00;5113848;28;20725;-70
2022/04/02 06:29:51;;;;;;;4.60;4.40;;;;;;;1.33;80.50;101019.44;5114121;28;20190;-70
2022/04/02 06:32:20;;;;;;;4.47;4.30;;;;;;;1.42;79.76;101017.75;5114016;28;20187;-69
2022/04/02 06:34:47;;;;;;;4.00;3.70;;;;;;;1.38;78.99;101017.75;5095661;28;20223;-69
2022/04/02 06:37:13;;;;;;;4.10;3.90;;;;;;;1.29;79.73;101019.47;5095441;28;20694;-69
2022/04/02 06:39:40;;;;;;;4.03;4.03;;;;;;;1.24;80.16;101022.03;5113648;28;20181;-69
2022/04/02 06:42:06;;;;;;;3.60;3.60;;;;;;;1.31;80.71;101028.91;5114260;28;20199;-70
2022/04/02 06:44:40;;;;;;;4.50;4.30;;;;;;;1.32;79.78;101027.19;5095797;28;20215;-70
2022/04/02 06:47:06;;;;;;;4.50;4.30;;;;;;;1.37;79.88;101023.78;5116341;28;20190;-70
2022/04/02 06:49:33;;;;;;;3.80;3.80;;;;;;;1.46;79.32;101028.06;5118219;28;20201;-69
2022/04/02 06:51:59;;;;;;;4.20;4.10;;;;;;;1.44;79.79;101034.97;5117995;28;20197;-69
2022/04/02 06:54:26;;;;;;;4.17;4.17;;;;;;;1.45;79.75;101043.56;5117728;28;20208;-69
2022/04/02 06:56:53;;;;;;;6.23;4.73;;;;;;;1.40;79.99;101040.97;5117563;28;20214;-69
2022/04/02 06:59:19;;;;;;;4.80;4.70;;;;;;;1.55;80.18;101045.28;5117748;28;20184;-69
2022/04/02 07:01:45;;;;;;;4.23;4.17;;;;;;;1.56;79.83;101040.09;5117680;28;20199;-69
2022/04/02 07:04:12;;;;;;;4.20;3.73;;;;;;;1.53;80.58;101047.00;5117550;28;20570;-69
2022/04/02 07:06:44;;;;;;;6.20;4.30;;;;;;;1.54;79.81;101052.16;5117585;28;20185;-70
2022/04/02 07:09:12;;;;;;;4.73;4.63;;;;;;;1.74;79.10;101048.72;5117802;28;20521;-70
2022/04/02 07:11:38;;;;;;;3.93;3.60;;;;;;;1.53;80.68;101054.75;5117702;28;20234;-70
2022/04/02 07:14:05;;;;;;;4.50;4.50;;;;;;;1.69;79.67;101053.88;5117351;28;20690;-70
2022/04/02 07:16:31;;;;;;;4.60;4.20;;;;;;;1.68;79.56;101067.66;5117669;28;20242;-70
2022/04/02 07:19:00;;;;;;;4.73;4.63;;;;;;;1.63;78.92;101070.22;5117792;28;20601;-70
2022/04/02 07:21:27;;;;;;;4.33;4.13;;;;;;;1.63;78.46;101061.63;5117542;28;20209;-70
2022/04/02 07:23:55;;;;;;;4.80;4.70;;;;;;;1.75;79.05;101065.94;5117214;28;20204;-70
2022/04/02 07:26:22;;;;;;;6.70;4.30;;;;;;;1.87;78.35;101065.94;5117779;28;20178;-70
2022/04/02 07:28:50;;;;;;;4.00;4.00;;;;;;;1.98;77.45;101074.53;5117439;28;20179;-70
2022/04/02 07:31:17;;;;;;;4.77;4.67;;;;;;;1.97;77.00;101077.13;5117380;28;20581;-70
2022/04/02 07:33:43;;;;;;;3.97;3.97;;;;;;;1.85;76.88;101068.50;5117259;28;20542;-70
2022/04/02 07:36:37;;;;;;;5.27;4.57;;;;;;;1.88;76.09;101078.84;5117006;28;20187;-70
2022/04/02 07:39:14;;;;;;;6.40;5.17;;;;;;;2.03;76.58;101087.44;5117180;28;20192;-70
2022/04/02 07:41:48;;;;;;;4.43;4.33;;;;;;;2.01;75.92;101089.19;5116916;28;20177;-70
2022/04/02 07:44:42;;;;;;;4.20;4.10;;;;;;;1.99;77.43;101089.16;5117204;28;20205;-70
2022/04/02 07:47:13;;;;;;;4.80;4.70;;;;;;;2.14;77.61;101090.88;5117138;28;20564;-70
2022/04/02 07:49:44;;;;;;;4.77;4.67;;;;;;;2.10;75.68;101095.19;5117348;28;20535;-70
2022/04/02 07:52:12;;;;;;;5.47;4.57;;;;;;;2.03;76.83;101101.22;5117298;28;20173;-70
2022/04/02 07:54:42;;;;;;;4.43;4.33;;;;;;;2.03;78.79;101098.63;5116858;28;20201;-70
2022/04/02 07:57:11;;;;;;;4.33;4.23;;;;;;;2.15;76.63;101108.13;5116245;28;20273;-70
2022/04/02 07:59:54;;;;;;;5.40;4.90;;;;;;;2.11;75.54;101108.97;5098275;28;20259;-71
2022/04/02 08:02:38;;;;;;;4.23;4.03;;;;;;;2.18;77.28;101108.97;5117101;28;20176;-71
2022/04/02 08:05:07;;;;;;;4.50;4.40;;;;;;;2.18;75.43;101114.13;5116643;28;20205;-71
2022/04/02 08:07:35;;;;;;;4.60;4.50;;;;;;;2.22;75.93;101109.84;5116586;28;20181;-71
2022/04/02 08:10:10;;;;;;;4.87;4.73;;;;;;;2.24;75.84;101110.69;5098306;28;20535;-71
2022/04/02 08:12:41;;;;;;;4.20;4.20;;;;;;;2.29;76.09;101116.72;5132428;27;20667;-71
2022/04/02 08:15:12;;;;;;;3.90;3.90;;;;;;;2.27;74.83;101114.97;5116139;28;20243;-71
2022/04/02 08:17:40;;;;;;;4.67;4.57;;;;;;;2.29;76.88;101121.03;5098531;28;20242;-71
2022/04/02 08:20:10;;;;;;;4.50;4.43;;;;;;;2.34;75.96;101116.69;5098083;28;20224;-71
2022/04/02 08:22:37;;;;;;;5.07;4.77;;;;;;;2.45;74.77;101118.41;5116053;28;20185;-71
2022/04/02 08:25:04;;;;;;;4.97;4.83;;;;;;;2.64;75.06;101123.53;5116086;28;20243;-71
2022/04/02 08:27:45;;;;;;;4.20;4.10;;;;;;;2.74;74.06;101125.25;5115944;28;20243;-72
2022/04/02 08:30:18;;;;;;;4.47;4.37;;;;;;;2.66;75.69;101120.09;5116344;28;20530;-72
2022/04/02 08:33:22;;;;;;;5.00;4.80;;;;;;;2.74;75.23;101135.59;5116233;28;20512;-72
2022/04/02 08:36:09;;;;;;;5.20;5.10;;;;;;;2.79;73.94;101130.38;5116012;28;20181;-71
2022/04/02 08:39:21;;;;;;;4.60;4.37;;;;;;;2.74;74.00;101130.41;5115782;28;20193;-71
2022/04/02 08:42:08;;;;;;;3.93;3.93;;;;;;;2.76;74.27;101136.44;5116032;28;20619;-71
2022/04/02 08:44:52;;;;;;;4.70;4.53;;;;;;;2.79;74.36;101138.13;5115698;28;20741;-71
2022/04/02 08:47:56;;;;;;;4.97;4.43;;;;;;;2.89;73.34;101139.84;5115972;28;20223;-71
2022/04/02 08:50:34;;;;;;;4.63;4.50;;;;;;;3.10;74.75;101139.78;5115594;28;20188;-71
2022/04/02 08:53:16;;;;;;;4.73;4.53;;;;;;;3.02;73.14;101142.41;5115812;28;20173;-71
2022/04/02 08:55:47;;;;;;;5.13;5.07;;;;;;;3.14;72.73;101144.06;5115340;28;20212;-71
2022/04/02 08:58:26;;;;;;;5.97;5.50;;;;;;;3.07;73.41;101154.44;5115971;28;20197;-71
2022/04/02 09:01:10;;;;;;;5.33;5.10;;;;;;;2.93;74.55;101155.38;5115398;28;20226;-71
2022/04/02 09:04:09;;;;;;;4.50;4.40;;;;;;;3.15;76.74;101150.13;5115497;28;20207;-71
2022/04/02 09:06:58;;;;;;;4.97;4.97;;;;;;;3.34;74.87;101154.31;5115691;28;20648;-71
2022/04/02 09:09:55;;;;;;;5.40;5.07;;;;;;;3.26;73.72;101163.84;5096548;28;20203;-71
2022/04/02 09:12:28;;;;;;;5.60;5.50;;;;;;;3.27;74.18;101165.56;5115382;28;20230;-71
2022/04/02 09:15:12;;;;;;;5.50;5.10;;;;;;;3.34;74.68;101166.41;5115202;28;20240;-71
2022/04/02 09:17:48;;;;;;;5.80;5.50;;;;;;;3.31;73.38;101164.69;5115546;28;20200;-71
2022/04/02 09:20:20;;;;;;;5.77;5.47;;;;;;;3.46;75.18;101159.44;5115566;28;20181;-71
2022/04/02 09:23:15;;;;;;;6.40;6.00;;;;;;;3.48;73.50;101160.28;5115165;28;20230;-71
2022/04/02 09:25:58;;;;;;;7.07;6.77;;;;;;;3.51;74.15;101168.06;5115269;28;20597;-71
2022/04/02 09:28:35;;;;;;;6.57;6.13;;;;;;;3.50;73.11;101165.47;5115756;28;20589;-71
2022/04/02 09:31:30;;;;;;;6.00;5.63;;;;;;;3.67;73.03;101167.97;5115078;28;20178;-71
2022/04/02 09:34:11;;;;;;;5.73;5.60;;;;;;;3.72;74.49;101171.41;5115226;28;20208;-71
2022/04/02 09:36:53;;;;;;;6.43;5.90;;;;;;;3.78;74.11;101168.75;5114932;28;20701;-71
2022/04/02 09:39:36;;;;;;;6.13;5.83;;;;;;;3.73;72.52;101173.13;5114833;28;20659;-71
2022/04/02 09:42:27;;;;;;;5.77;5.67;;;;;;;3.40;70.80;101181.91;5114819;28;20162;-71
2022/04/02 09:45:04;;;;;;;6.13;5.83;;;;;;;3.35;71.48;101179.34;5114710;28;20201;-71
2022/04/02 09:47:51;;;;;;;6.47;6.27;;;;;;;3.44;72.85;101187.09;5114748;28;20181;-71
2022/04/02 09:50:21;;;;;;;6.13;5.93;;;;;;;3.71;74.10;101180.00;5114730;28;20573;-71
2022/04/02 09:53:12;;;;;;;6.47;6.20;;;;;;;3.82;74.21;101180.81;5114575;28;20194;-71
2022/04/02 09:56:22;;;;;;;6.10;5.53;;;;;;;3.90;70.83;101186.81;5114352;28;20205;-70
2022/04/02 09:59:05;;;;;;;7.40;5.73;;;;;;;3.93;72.01;101186.81;5114175;28;20254;-71
2022/04/02 10:01:38;;;;;;;5.40;5.30;;;;;;;4.05;71.64;101191.88;5114313;28;20225;-71
2022/04/02 10:04:08;;;;;;;5.00;4.90;;;;;;;4.07;71.93;101189.28;5114703;28;20206;-70
2022/04/02 10:06:48;;;;;;;6.03;5.83;;;;;;;4.11;71.93;101199.63;5114375;28;20183;-70
2022/04/02 10:09:18;;;;;;;5.77;5.57;;;;;;;3.89;72.88;101200.66;5114399;28;20623;-70
2022/04/02 10:11:52;;;;;;;6.17;5.93;;;;;;;3.92;72.48;101198.03;5114391;28;20177;-70
2022/04/02 10:14:24;;;;;;;5.87;5.67;;;;;;;3.80;73.98;101211.91;5113981;28;20251;-70
2022/04/02 10:16:55;;;;;;;11.87;5.50;;;;;;;3.59;74.20;101218.06;5114478;28;20552;-71
2022/04/02 10:19:30;;;;;;;6.93;6.53;;;;;;;3.63;74.57;101212.88;5114163;28;20194;-71
2022/04/02 10:22:03;;;;;;;5.77;5.30;;;;;;;3.59;75.39;101223.25;5113897;28;20193;-71
2022/04/02 10:24:38;;;;;;;5.40;5.30;;;;;;;3.66;76.09;101224.09;5113823;28;20213;-71
2022/04/02 10:27:10;;;;;;;6.27;5.97;;;;;;;3.58;79.02;101221.53;5113981;28;20182;-71
2022/04/02 10:29:54;;;;;;;6.17;5.87;;;;;;;3.76;78.33;101223.16;5114417;28;20171;-71
2022/04/02 10:32:33;;;;;;;7.17;6.83;;;;;;;3.59;76.90;101223.25;5114054;28;20173;-71
2022/04/02 10:35:08;;;;;;;6.10;5.70;;;;;;;3.61;75.56;101224.97;5113752;28;20209;-71
2022/04/02 10:38:17;;;;;;;7.03;6.73;;;;;;;3.69;76.62;101229.22;5113889;28;20178;-71
2022/04/02 10:40:48;;;;;;;6.27;5.97;;;;;;;3.63;76.72;101224.06;5071014;28;20232;-71
2022/04/02 10:43:29;;;;;;;6.20;6.07;;;;;;;3.51;78.19;101225.00;5114011;28;20681;-71
2022/04/02 10:45:57;;;;;;;6.23;6.03;;;;;;;3.54;78.10;101227.56;5113826;28;20216;-71
2022/04/02 10:48:41;;;;;;;6.23;6.03;;;;;;;3.65;79.06;101231.88;5114085;28;20189;-71
2022/04/02 10:51:08;;;;;;;6.23;5.83;;;;;;;3.62;79.82;101234.44;5113832;28;20169;-70
2022/04/02 10:53:41;;;;;;;6.67;6.57;;;;;;;3.57;80.50;101227.59;5113459;28;20194;-71
2022/04/02 10:56:15;;;;;;;6.60;6.40;;;;;;;3.70;81.68;101225.78;5113853;28;20189;-71
2022/04/02 10:58:48;;;;;;;7.10;6.70;;;;;;;3.82;80.19;101222.28;5113915;28;20202;-71
2022/04/02 11:01:18;;;;;;;6.77;6.47;;;;;;;3.96;78.43;101215.28;5113507;28;20186;-71
2022/04/02 11:03:55;;;;;;;7.00;6.73;;;;;;;4.26;76.84;101218.53;5114137;28;20568;-71
2022/04/02 11:06:46;;;;;;;6.90;6.70;;;;;;;4.45;78.28;101217.53;5113745;28;20170;-71
2022/04/02 11:09:27;;;;;;;7.47;7.10;;;;;;;4.54;77.73;101222.63;5113703;28;20231;-71
2022/04/02 11:11:56;;;;;;;7.07;6.73;;;;;;;4.44;77.30;101217.53;5113472;28;20240;-71
2022/04/02 11:14:22;;;;;;;5.80;5.70;;;;;;;4.30;76.92;101221.09;5113578;28;20227;-71
2022/04/02 11:16:49;;;;;;;6.60;6.37;;;;;;;4.27;75.52;101217.66;5113887;28;20234;-71
2022/04/02 11:22:07;;;;;;;6.50;6.20;;;;;;;3.94;75.97;101219.63;5113595;28;20175;-70
2022/04/02 11:25:07;;;;;;;5.97;5.87;;;;;;;3.93;75.53;101222.19;5113368;28;20209;-71
2022/04/02 11:27:38;;;;;;;6.10;6.00;;;;;;;3.62;75.16;101226.69;5113225;28;20524;-70
2022/04/02 11:30:11;;;;;;;5.87;5.63;;;;;;;3.71;75.18;101219.72;5113776;28;20175;-70
2022/04/02 11:32:40;;;;;;;6.07;5.97;;;;;;;3.69;75.67;101228.38;5115157;28;20177;-70
2022/04/02 11:35:15;;;;;;;7.03;6.73;;;;;;;3.76;75.96;101230.06;5116952;28;20695;-70
2022/04/02 11:38:10;;;;;;;6.10;5.80;;;;;;;3.58;76.59;101237.06;5117487;28;20184;-70
2022/04/02 11:40:43;;;;;;;7.43;6.93;;;;;;;3.66;76.99;101243.94;5117238;28;20219;-70
2022/04/02 11:43:11;;;;;;;6.33;6.23;;;;;;;3.47;78.31;101237.97;5117136;28;20177;-70
2022/04/02 11:45:40;;;;;;;6.77;6.63;;;;;;;3.36;79.32;101245.78;5117290;28;20640;-70
2022/04/02 11:48:15;;;;;;;6.60;6.27;;;;;;;3.40;78.24;101246.63;5117216;28;20236;-70
2022/04/02 11:50:43;;;;;;;6.10;5.70;;;;;;;3.46;78.95;101242.28;5116737;28;20227;-70
2022/04/02 11:53:12;;;;;;;6.53;6.23;;;;;;;3.42;78.16;101250.06;5116922;28;20187;-70
2022/04/02 11:55:41;;;;;;;6.90;6.60;;;;;;;3.34;79.46;101247.50;5116550;28;20304;-70
2022/04/02 11:58:13;;;;;;;6.30;6.17;;;;;;;3.40;77.87;101242.28;5116822;28;20254;-70
2022/04/02 12:00:43;;;;;;;6.30;6.13;;;;;;;3.48;77.59;101243.13;5116749;28;20234;-70
2022/04/02 12:03:24;;;;;;;7.63;7.10;;;;;;;3.61;78.45;101243.09;5117296;28;20189;-71
2022/04/02 12:05:51;;;;;;;6.57;6.23;;;;;;;3.71;77.69;101250.78;5116498;28;20192;-71